Time;durP1;ratioP1;P1;durP2;ratioP2;P2;SDS_P1;SDS_P2;PMS_P1;PMS_P2;Temp;Humidity;BMP_temperature;BMP_pressure;BME280_temperature;BME280_humidity;BME280_pressure;Samples;Min_cycle;Max_cycle;Signal;HPM_P1;HPM_P2
2023/01/25 00:00:37;;;;;;;7.55;4.65;;;3.70;99.90;;;3.48;89.81;102522.25;4992873;28;20200;-68
2023/01/25 00:03:04;;;;;;;10.85;7.32;;;3.70;99.90;;;3.48;89.49;102523.13;4992791;28;20710;-66
2023/01/25 00:05:31;;;;;;;1.60;1.10;;;3.80;99.90;;;3.51;89.68;102522.25;4992224;28;20247;-69
2023/01/25 00:07:58;;;;;;;8.38;5.30;;;3.70;99.90;;;3.52;89.25;102526.50;4992950;28;20200;-73
2023/01/25 00:10:25;;;;;;;11.23;8.15;;;3.70;99.90;;;3.51;89.45;102517.94;4993437;28;20203;-66
2023/01/25 00:12:52;;;;;;;4.10;3.63;;;3.80;99.90;;;3.52;89.43;102516.19;4993382;28;20860;-66
2023/01/25 00:15:19;;;;;;;9.52;6.68;;;3.80;99.90;;;3.53;89.43;102517.91;4992289;28;20219;-68
2023/01/25 00:17:46;;;;;;;10.48;6.55;;;3.80;99.90;;;3.53;89.36;102507.59;4992405;28;20203;-69
2023/01/25 00:20:13;;;;;;;6.38;4.15;;;3.80;99.90;;;3.55;89.48;102513.59;4999895;28;20219;-66
2023/01/25 00:22:40;;;;;;;12.30;6.97;;;3.80;99.90;;;3.52;89.55;102511.88;4996038;28;20212;-69
2023/01/25 00:25:07;;;;;;;10.65;6.65;;;3.80;99.90;;;3.51;89.08;102501.59;4992905;28;20258;-66
2023/01/25 00:27:35;;;;;;;9.65;5.43;;;3.80;99.90;;;3.52;89.35;102500.69;4992302;28;20230;-66
2023/01/25 00:30:02;;;;;;;10.80;6.63;;;3.80;99.90;;;3.48;89.65;102499.91;4993080;28;20215;-67
2023/01/25 00:32:46;;;;;;;12.02;6.32;;;3.70;99.90;;;3.52;89.68;102500.69;4990809;28;20206;-66
2023/01/25 00:35:13;;;;;;;10.60;6.40;;;3.80;99.90;;;3.51;90.14;102493.84;4990909;28;20229;-67
2023/01/25 00:37:48;;;;;;;9.30;6.72;;;3.80;99.90;;;3.49;90.02;102493.84;4992621;28;20211;-67
2023/01/25 00:40:15;;;;;;;10.20;5.07;;;3.80;99.90;;;3.52;90.19;102498.13;4991803;28;20222;-66
2023/01/25 00:42:42;;;;;;;9.02;5.57;;;3.80;99.90;;;3.54;90.18;102483.47;4991421;28;20203;-69
2023/01/25 00:45:11;;;;;;;8.70;5.47;;;3.80;99.90;;;3.55;90.42;102491.22;4992514;28;20199;-65
2023/01/25 00:47:38;;;;;;;10.63;6.30;;;3.80;99.90;;;3.55;90.19;102490.34;4991605;28;20262;-66
2023/01/25 00:50:07;;;;;;;9.70;5.68;;;3.80;99.90;;;3.55;90.01;102491.22;4991533;28;20207;-67
2023/01/25 00:52:34;;;;;;;11.38;6.85;;;3.80;99.90;;;3.55;90.20;102485.19;4991943;28;20207;-67
2023/01/25 00:55:01;;;;;;;11.32;6.40;;;3.80;99.90;;;3.53;90.37;102484.34;4992636;28;20294;-67
2023/01/25 00:57:28;;;;;;;9.95;5.50;;;3.80;99.90;;;3.50;90.47;102482.66;4992264;28;20215;-66
2023/01/25 00:59:55;;;;;;;9.68;6.00;;;3.80;99.90;;;3.50;91.30;102477.50;4992296;28;20223;-66
2023/01/25 01:02:22;;;;;;;9.75;5.82;;;3.70;99.90;;;3.53;91.23;102472.31;4991453;28;20195;-66
2023/01/25 01:04:49;;;;;;;11.73;6.32;;;3.80;99.90;;;3.54;90.84;102473.13;4991649;28;20206;-66
2023/01/25 01:07:16;;;;;;;11.60;6.97;;;3.80;99.90;;;3.53;90.69;102471.44;4988832;28;20223;-66
2023/01/25 01:09:43;;;;;;;8.85;5.15;;;3.80;99.90;;;3.53;90.23;102474.91;4985203;28;20206;-67
2023/01/25 01:12:10;;;;;;;12.73;8.23;;;3.80;99.90;;;3.57;91.00;102470.53;4990718;28;20203;-67
2023/01/25 01:14:37;;;;;;;8.50;5.03;;;3.80;99.90;;;3.58;90.93;102459.31;4991124;28;20627;-70
2023/01/25 01:17:04;;;;;;;10.80;6.60;;;3.80;99.90;;;3.59;90.60;102468.78;4991110;28;20227;-67
2023/01/25 01:19:31;;;;;;;6.53;4.80;;;3.80;99.90;;;3.56;90.39;102464.50;4990415;28;20219;-69
2023/01/25 01:21:58;;;;;;;7.65;5.07;;;3.80;99.90;;;3.56;90.54;102467.09;4990381;28;20211;-65
2023/01/25 01:24:25;;;;;;;8.60;5.10;;;3.80;99.90;;;3.56;90.32;102466.22;4991540;28;20200;-70
2023/01/25 01:26:52;;;;;;;5.30;3.40;;;3.80;99.90;;;3.54;90.03;102465.41;4990929;28;20215;-66
2023/01/25 01:29:19;;;;;;;6.78;5.28;;;3.80;99.90;;;3.52;90.41;102470.59;4989906;28;20743;-66
2023/01/25 01:31:50;;;;;;;4.65;1.80;;;3.80;99.90;;;3.58;90.50;102470.50;4990451;28;20207;-66
2023/01/25 01:34:18;;;;;;;5.78;4.22;;;3.80;99.90;;;3.59;90.54;102461.03;4990036;28;20672;-67
2023/01/25 01:36:45;;;;;;;4.25;3.53;;;3.90;99.90;;;3.58;90.30;102465.34;4990239;28;20243;-67
2023/01/25 01:39:12;;;;;;;8.30;4.82;;;3.90;99.90;;;3.58;90.70;102462.75;4990751;28;20225;-68
2023/01/25 01:41:39;;;;;;;10.73;5.47;;;3.90;99.90;;;3.60;90.19;102462.75;4973240;28;20200;-69
2023/01/25 01:44:16;;;;;;;9.75;5.68;;;3.90;99.90;;;3.56;90.54;102467.09;4985571;28;20671;-66
2023/01/25 01:46:54;;;;;;;14.43;7.13;;;3.80;99.90;;;3.52;91.10;102465.44;4989139;28;20223;-67
2023/01/25 01:49:28;;;;;;;8.98;5.68;;;3.80;99.90;;;3.53;90.32;102456.81;4969976;28;20216;-66
2023/01/25 01:52:05;;;;;;;2.95;2.35;;;3.80;99.90;;;3.54;90.20;102457.66;4989843;28;20204;-66
2023/01/25 01:54:45;;;;;;;4.85;4.00;;;3.80;99.90;;;3.58;90.72;102457.59;4983430;28;20207;-68
2023/01/25 01:57:19;;;;;;;8.20;5.05;;;3.80;99.90;;;3.60;89.83;102461.00;4990679;28;20318;-67
2023/01/25 01:59:59;;;;;;;6.97;4.85;;;3.90;99.90;;;3.59;90.01;102450.72;4972719;28;20232;-68
2023/01/25 02:02:26;;;;;;;5.95;4.57;;;3.90;99.90;;;3.56;89.98;102458.50;4989024;28;20199;-67
2023/01/25 02:05:00;;;;;;;2.22;1.95;;;3.80;99.90;;;3.56;89.15;102458.50;4990988;28;20675;-68
2023/01/25 02:07:35;;;;;;;4.65;3.55;;;3.90;99.90;;;3.58;88.80;102456.72;4987396;28;20219;-67
2023/01/25 02:10:10;;;;;;;0.75;0.75;;;3.80;99.90;;;3.60;87.59;102453.25;4970254;28;20676;-70
2023/01/25 02:12:37;;;;;;;6.57;4.75;;;3.90;99.90;;;3.60;88.03;102450.69;4980688;28;20675;-66
2023/01/25 02:15:05;;;;;;;4.20;3.45;;;3.90;99.90;;;3.55;88.57;102459.38;4990840;28;20269;-69
2023/01/25 02:17:38;;;;;;;3.35;3.05;;;3.80;99.90;;;3.49;88.37;102460.28;4989857;28;20227;-66
2023/01/25 02:20:38;;;;;;;6.18;3.92;;;3.70;99.90;;;3.47;88.99;102461.22;4990861;28;20230;-66
2023/01/25 02:23:49;;;;;;;2.85;2.40;;;3.70;99.90;;;3.46;89.14;102457.78;4996418;28;20270;-66
2023/01/25 02:26:18;;;;;;;8.23;4.25;;;3.70;99.90;;;3.48;88.90;102455.16;4989267;28;20219;-66
2023/01/25 02:28:51;;;;;;;5.55;3.90;;;3.70;99.90;;;3.43;89.39;102452.66;4983732;28;20285;-67
2023/01/25 02:31:18;;;;;;;7.93;5.13;;;3.70;99.90;;;3.47;89.30;102450.91;4980924;28;20204;-67
2023/01/25 02:33:45;;;;;;;7.18;4.75;;;3.70;99.90;;;3.45;88.83;102448.31;4991217;28;20234;-66
2023/01/25 02:36:24;;;;;;;1.25;1.02;;;3.70;99.90;;;3.46;89.22;102444.00;5005797;23;20289;-68
2023/01/25 02:39:17;;;;;;;5.78;3.97;;;3.70;99.90;;;3.48;88.50;102432.78;4992452;28;20220;-69
2023/01/25 02:41:49;;;;;;;4.65;3.03;;;3.80;99.90;;;3.48;89.34;102439.69;5012624;28;20210;-68
2023/01/25 02:44:21;;;;;;;3.83;2.65;;;3.70;99.90;;;3.49;89.27;102441.41;4998188;28;20195;-68
2023/01/25 02:46:47;;;;;;;0.50;0.40;;;3.70;99.90;;;3.50;89.25;102436.22;5026603;28;20589;-68
2023/01/25 02:49:16;;;;;;;5.70;4.03;;;3.80;99.90;;;3.52;89.18;102442.19;4990244;28;20692;-69
2023/01/25 02:51:47;;;;;;;5.70;2.45;;;3.80;99.90;;;3.53;89.06;102437.91;4988796;28;20258;-70
2023/01/25 02:54:17;;;;;;;8.35;4.53;;;3.80;99.90;;;3.53;89.11;102437.91;4993403;28;20203;-69
2023/01/25 02:56:43;;;;;;;6.60;3.90;;;3.80;99.90;;;3.50;89.75;102432.75;4994472;28;20219;-68
2023/01/25 02:59:12;;;;;;;6.88;3.35;;;3.80;99.90;;;3.49;90.13;102428.50;5008669;28;20203;-67
2023/01/25 03:01:42;;;;;;;8.00;4.82;;;3.70;99.90;;;3.51;90.10;102432.78;5009914;28;20207;-68
2023/01/25 03:04:09;;;;;;;4.55;3.17;;;3.80;99.90;;;3.53;89.66;102435.31;5007830;28;20254;-68
2023/01/25 03:06:37;;;;;;;1.67;1.20;;;3.80;99.90;;;3.55;88.96;102431.84;4995079;28;20211;-69
2023/01/25 03:09:07;;;;;;;1.50;1.10;;;3.90;99.90;;;3.52;88.98;102428.44;4990432;28;20207;-67
2023/01/25 03:11:34;;;;;;;7.90;3.53;;;3.80;99.90;;;3.45;89.65;102432.84;4993967;28;20215;-69
2023/01/25 03:14:01;;;;;;;8.48;5.55;;;3.70;99.90;;;3.41;89.68;102431.16;4992043;28;20199;-70
2023/01/25 03:16:30;;;;;;;5.45;3.30;;;3.70;99.90;;;3.39;89.77;102432.91;5009615;28;20223;-68
2023/01/25 03:18:58;;;;;;;5.10;3.58;;;3.70;99.90;;;3.39;90.31;102442.38;5007964;28;20694;-68
2023/01/25 03:21:26;;;;;;;0.60;0.60;;;3.70;99.90;;;3.38;89.54;102438.13;4994266;28;20219;-69
2023/01/25 03:24:01;;;;;;;5.97;4.47;;;3.70;99.90;;;3.38;89.72;102426.06;4993300;28;20195;-69
2023/01/25 03:26:28;;;;;;;7.95;3.70;;;3.70;99.90;;;3.35;90.18;102425.25;5008967;28;20219;-70
2023/01/25 03:28:56;;;;;;;10.98;6.15;;;3.60;99.90;;;3.32;90.03;102413.25;4991963;28;20587;-68
2023/01/25 03:31:23;;;;;;;11.70;6.20;;;3.60;99.90;;;3.31;90.34;102418.41;5007845;28;20585;-70
2023/01/25 03:33:50;;;;;;;5.22;4.25;;;3.60;99.90;;;3.27;91.15;102417.63;4992656;28;20199;-69
2023/01/25 03:36:17;;;;;;;10.15;6.40;;;3.50;99.90;;;3.24;91.11;102416.81;4993461;28;20754;-70
2023/01/25 03:38:44;;;;;;;11.25;6.85;;;3.50;99.90;;;3.21;91.33;102419.44;5008008;28;20203;-68
2023/01/25 03:41:12;;;;;;;9.05;5.65;;;3.50;99.90;;;3.21;91.12;102422.00;4993535;28;20227;-68
2023/01/25 03:43:39;;;;;;;13.45;7.25;;;3.50;99.90;;;3.20;91.72;102428.03;4990843;28;20202;-68
2023/01/25 03:46:06;;;;;;;9.82;6.00;;;3.50;99.90;;;3.25;91.40;102419.38;5023861;28;20654;-68
2023/01/25 03:48:33;;;;;;;4.05;3.72;;;3.50;99.90;;;3.25;91.09;102418.50;4993094;28;20199;-67
2023/01/25 03:51:00;;;;;;;12.23;6.25;;;3.50;99.90;;;3.27;91.45;102424.50;4992519;28;20672;-69
2023/01/25 03:53:29;;;;;;;11.32;5.53;;;3.50;99.90;;;3.26;91.72;102422.81;4993524;28;20207;-68
2023/01/25 03:56:03;;;;;;;13.18;8.00;;;3.50;99.90;;;3.25;91.54;102416.78;4992727;28;20199;-69
2023/01/25 03:58:30;;;;;;;12.05;6.80;;;3.50;99.90;;;3.26;91.02;102422.81;4992915;28;20230;-68
2023/01/25 04:00:59;;;;;;;6.45;3.95;;;3.50;99.90;;;3.26;91.32;102418.47;4992774;28;20588;-69
2023/01/25 04:03:27;;;;;;;14.52;7.80;;;3.50;99.90;;;3.27;91.27;102417.63;4991583;28;20266;-67
2023/01/25 04:05:58;;;;;;;12.02;7.10;;;3.50;99.90;;;3.31;91.16;102421.84;4993962;28;20215;-69
2023/01/25 04:08:25;;;;;;;12.45;6.45;;;3.60;99.90;;;3.30;91.03;102419.31;5007361;28;20195;-68
2023/01/25 04:11:05;;;;;;;11.65;6.88;;;3.50;99.90;;;3.26;91.48;102412.50;4992740;28;20199;-68
2023/01/25 04:13:35;;;;;;;12.20;6.60;;;3.60;99.90;;;3.27;91.57;102414.19;4992827;28;20218;-67
2023/01/25 04:16:10;;;;;;;9.82;5.05;;;3.50;99.90;;;3.28;92.15;102413.31;5008696;28;20242;-68
2023/01/25 04:18:39;;;;;;;7.88;3.83;;;3.60;99.90;;;3.31;91.67;102418.41;4992099;28;20221;-70
2023/01/25 04:21:06;;;;;;;12.65;7.32;;;3.50;99.90;;;3.28;91.94;102416.72;4992085;28;20742;-69
2023/01/25 04:23:33;;;;;;;16.20;8.55;;;3.60;99.90;;;3.27;92.03;102416.75;5006890;28;20195;-68
2023/01/25 04:26:04;;;;;;;13.40;6.63;;;3.60;99.90;;;3.21;92.79;102411.69;5008037;28;20230;-68
2023/01/25 04:28:33;;;;;;;11.82;6.45;;;3.50;99.90;;;3.23;93.27;102410.81;4990446;28;20586;-69
2023/01/25 04:31:02;;;;;;;6.05;3.13;;;3.50;99.90;;;3.27;92.79;102409.88;5023009;28;20214;-69
2023/01/25 04:33:29;;;;;;;4.10;2.55;;;3.50;99.90;;;3.29;92.80;102413.28;4989047;28;20637;-69
2023/01/25 04:35:56;;;;;;;10.23;5.90;;;3.60;99.90;;;3.25;92.76;102400.44;4991646;28;20674;-69
2023/01/25 04:38:23;;;;;;;8.77;5.40;;;3.50;99.90;;;3.24;93.76;102404.75;4991715;28;20746;-68
2023/01/25 04:40:51;;;;;;;12.45;6.75;;;3.50;99.90;;;3.22;93.68;102409.06;4991832;28;20231;-68
2023/01/25 04:43:19;;;;;;;2.10;1.90;;;3.50;99.90;;;3.22;94.15;102400.47;4990582;28;20204;-69
2023/01/25 04:45:46;;;;;;;5.05;2.95;;;3.50;99.90;;;3.21;94.01;102406.53;5007758;28;20204;-69
2023/01/25 04:48:14;;;;;;;13.02;5.50;;;3.50;99.90;;;3.20;94.61;102407.38;4988602;28;20207;-68
2023/01/25 04:50:42;;;;;;;10.73;5.50;;;3.50;99.90;;;3.20;94.89;102405.66;4991971;28;20214;-68
2023/01/25 04:53:11;;;;;;;10.55;5.57;;;3.50;99.90;;;3.17;94.85;102406.56;5006500;28;20207;-68
2023/01/25 04:55:38;;;;;;;10.15;6.15;;;3.50;99.90;;;3.15;95.63;102403.16;4992941;28;20213;-68
2023/01/25 04:58:05;;;;;;;6.57;4.38;;;3.40;99.90;;;3.19;95.84;102395.38;4989703;28;20203;-69
2023/01/25 05:00:32;;;;;;;10.50;6.20;;;3.50;99.90;;;3.20;95.91;102405.66;5006638;28;20704;-68
2023/01/25 05:02:59;;;;;;;13.23;6.85;;;3.50;99.90;;;3.19;96.71;102403.97;4985943;28;20199;-68
2023/01/25 05:05:26;;;;;;;8.43;4.90;;;3.40;99.90;;;3.22;96.27;102395.31;5005875;28;20207;-68
2023/01/25 05:07:53;;;;;;;12.00;6.65;;;3.50;99.90;;;3.20;96.42;102403.09;4990289;28;20230;-68
2023/01/25 05:10:20;;;;;;;14.90;6.07;;;3.50;99.90;;;3.23;96.91;102397.03;5001395;28;20754;-69
2023/01/25 05:12:47;;;;;;;11.50;5.35;;;3.50;99.90;;;3.22;96.37;102392.75;4991503;28;20217;-69
2023/01/25 05:15:14;;;;;;;14.75;7.75;;;3.50;99.90;;;3.19;97.12;102383.34;4992380;28;20203;-69
2023/01/25 05:17:41;;;;;;;12.90;5.88;;;3.50;99.90;;;3.18;97.06;102394.50;4990820;28;20639;-68
2023/01/25 05:20:09;;;;;;;10.27;6.38;;;3.40;99.90;;;3.16;97.75;102393.69;4991402;28;20679;-69
2023/01/25 05:22:36;;;;;;;2.85;2.42;;;3.40;99.90;;;3.16;97.70;102383.38;4991059;28;20223;-69
2023/01/25 05:25:05;;;;;;;9.73;5.85;;;3.50;99.90;;;3.14;97.36;102380.81;5007684;28;20206;-68
2023/01/25 05:27:32;;;;;;;3.42;2.05;;;3.40;99.90;;;3.12;97.96;102377.41;4990580;28;20230;-69
2023/01/25 05:29:58;;;;;;;13.10;5.95;;;3.40;99.90;;;3.12;97.53;102373.97;5007347;28;20203;-68
2023/01/25 05:32:26;;;;;;;1.75;1.30;;;3.40;99.90;;;3.11;97.97;102378.28;4989748;28;20254;-68
2023/01/25 05:34:52;;;;;;;5.85;4.10;;;3.40;99.90;;;3.14;97.84;102377.38;4991072;28;20198;-68
2023/01/25 05:37:20;;;;;;;7.43;5.18;;;3.40;99.90;;;3.12;97.55;102361.06;4990863;28;20227;-68
2023/01/25 05:39:47;;;;;;;10.27;6.10;;;3.40;99.90;;;3.14;97.67;102359.31;4991238;28;20254;-68
2023/01/25 05:42:17;;;;;;;14.88;7.05;;;3.40;99.90;;;3.14;97.88;102362.75;4991154;28;20250;-69
2023/01/25 05:44:44;;;;;;;8.82;5.35;;;3.40;99.90;;;3.13;98.24;102353.31;5007324;28;20617;-67
2023/01/25 05:47:16;;;;;;;13.80;7.82;;;3.40;99.90;;;3.17;98.27;102342.97;4991239;28;20235;-68
2023/01/25 05:49:43;;;;;;;13.73;7.45;;;3.40;99.90;;;3.15;98.30;102345.56;5005811;28;20718;-69
2023/01/25 05:52:13;;;;;;;2.33;1.92;;;3.40;99.90;;;3.14;98.76;102344.72;5005529;28;20277;-69
2023/01/25 05:54:41;;;;;;;6.18;4.65;;;3.50;99.90;;;3.14;98.57;102344.72;4989994;28;20569;-69
2023/01/25 05:57:08;;;;;;;9.98;4.75;;;3.40;99.90;;;3.13;98.58;102353.31;4989526;28;20231;-68
2023/01/25 05:59:35;;;;;;;11.38;4.45;;;3.40;99.90;;;3.13;97.94;102348.16;4989292;28;20212;-70
2023/01/25 06:02:01;;;;;;;7.25;4.15;;;3.40;99.90;;;3.12;98.39;102343.88;4990413;28;20613;-68
2023/01/25 06:04:28;;;;;;;12.32;6.20;;;3.40;99.90;;;3.10;98.05;102343.06;4991557;28;20203;-68
2023/01/25 06:06:55;;;;;;;14.50;7.65;;;3.40;99.90;;;3.09;98.99;102341.34;4988820;28;20219;-67
2023/01/25 06:09:22;;;;;;;10.20;5.50;;;3.40;99.90;;;3.07;98.95;102347.38;4973670;28;20210;-68
2023/01/25 06:11:49;;;;;;;10.93;5.55;;;3.30;99.90;;;3.08;99.34;102339.66;4973838;28;20285;-68
2023/01/25 06:14:17;;;;;;;12.48;6.93;;;3.30;99.90;;;3.08;99.27;102336.22;4989253;28;20207;-69
2023/01/25 06:16:43;;;;;;;5.55;4.30;;;3.40;99.90;;;3.12;98.73;102337.88;4991394;28;20223;-69
2023/01/25 06:19:13;;;;;;;8.73;4.40;;;3.40;99.90;;;3.09;98.83;102340.47;4990811;28;20203;-66
2023/01/25 06:21:40;;;;;;;12.30;5.85;;;3.40;99.90;;;3.09;98.44;102341.34;4996745;28;20222;-68
2023/01/25 06:24:07;;;;;;;9.90;5.88;;;3.40;99.90;;;3.06;98.53;102340.53;4996031;28;20206;-68
2023/01/25 06:26:34;;;;;;;11.18;6.45;;;3.40;99.90;;;3.09;99.03;102336.19;4998674;28;20224;-69
2023/01/25 06:29:04;;;;;;;9.98;5.90;;;3.40;99.90;;;3.11;98.31;102347.31;4991994;28;20207;-69
2023/01/25 06:31:31;;;;;;;10.55;5.70;;;3.40;99.90;;;3.09;98.96;102351.66;5008965;28;20226;-69
2023/01/25 06:34:03;;;;;;;1.30;1.10;;;3.40;99.90;;;3.11;98.05;102361.94;4990729;28;20203;-69
2023/01/25 06:36:30;;;;;;;4.45;2.85;;;3.40;99.90;;;3.11;98.20;102362.78;4989843;28;20309;-69
2023/01/25 06:38:57;;;;;;;8.55;5.53;;;3.40;99.90;;;3.09;97.56;102361.09;4989350;28;20199;-68
2023/01/25 06:41:23;;;;;;;9.48;5.18;;;3.40;99.90;;;3.06;97.87;102356.00;4990445;28;20223;-69
2023/01/25 06:43:51;;;;;;;11.30;5.85;;;3.40;99.90;;;3.04;98.08;102353.47;4989762;28;20203;-68
2023/01/25 06:46:19;;;;;;;16.63;7.80;;;3.30;99.90;;;3.02;98.56;102355.19;4991601;28;20221;-69
2023/01/25 06:48:46;;;;;;;7.00;3.50;;;3.30;99.90;;;3.06;98.68;102356.00;4988151;28;20199;-68
2023/01/25 06:51:14;;;;;;;11.13;6.70;;;3.30;99.90;;;3.07;98.36;102363.72;4985423;28;20242;-69
2023/01/25 06:53:44;;;;;;;4.40;3.00;;;3.30;99.90;;;3.08;98.35;102362.84;4989294;28;20710;-69
2023/01/25 06:56:16;;;;;;;6.65;2.75;;;3.40;99.90;;;3.05;98.47;102355.16;4990053;28;20227;-69
2023/01/25 06:58:43;;;;;;;11.70;6.03;;;3.30;99.90;;;3.03;97.63;102350.88;5004978;28;20673;-69
2023/01/25 07:01:18;;;;;;;8.90;4.65;;;3.30;99.90;;;2.99;97.68;102357.81;4988745;28;20309;-69
2023/01/25 07:03:51;;;;;;;14.07;7.43;;;3.30;99.90;;;2.97;98.00;102354.41;4990929;28;20202;-69
2023/01/25 07:06:19;;;;;;;10.82;5.15;;;3.20;99.90;;;2.96;97.94;102357.84;5004457;28;20227;-69
2023/01/25 07:08:46;;;;;;;5.68;3.35;;;3.30;99.90;;;3.00;98.45;102344.03;4985740;28;20672;-68
2023/01/25 07:11:14;;;;;;;12.60;5.40;;;3.30;99.90;;;2.99;97.78;102337.19;4989395;28;20203;-69
2023/01/25 07:13:44;;;;;;;9.70;4.05;;;3.30;99.90;;;3.00;96.93;102344.03;5003993;28;20208;-68
2023/01/25 07:16:18;;;;;;;5.28;2.58;;;3.30;99.90;;;3.01;97.88;102345.75;4989520;28;20227;-69
2023/01/25 07:18:45;;;;;;;10.80;5.00;;;3.30;99.90;;;2.96;97.83;102342.38;4998757;28;20241;-68
2023/01/25 07:21:16;;;;;;;10.25;5.70;;;3.30;99.90;;;2.96;97.79;102344.94;4988718;28;20310;-68
2023/01/25 07:23:44;;;;;;;9.77;6.18;;;3.20;99.90;;;2.93;98.53;102339.84;4989295;28;20231;-68
2023/01/25 07:26:18;;;;;;;10.88;6.40;;;3.20;99.90;;;2.91;98.41;102339.03;4992763;28;20754;-69
2023/01/25 07:28:46;;;;;;;8.85;5.05;;;3.20;99.90;;;2.90;99.10;102337.31;4975600;28;20210;-72
2023/01/25 07:31:23;;;;;;;9.95;5.50;;;3.20;99.90;;;2.91;98.99;102330.44;4992554;28;20238;-69
2023/01/25 07:33:57;;;;;;;12.00;6.60;;;3.20;99.90;;;2.93;99.01;102329.53;4983943;28;20294;-68
2023/01/25 07:36:25;;;;;;;7.65;5.63;;;3.20;99.90;;;2.96;98.76;102332.06;5005406;28;20742;-69
2023/01/25 07:38:54;;;;;;;10.30;5.32;;;3.20;99.90;;;3.00;98.51;102330.31;4996232;28;20204;-69
2023/01/25 07:41:23;;;;;;;8.60;5.97;;;3.30;99.90;;;3.06;97.97;102337.97;5006057;28;20242;-70
2023/01/25 07:43:51;;;;;;;9.00;4.75;;;3.30;99.90;;;3.08;97.70;102334.47;5033879;28;20628;-68
2023/01/25 07:46:18;;;;;;;10.63;5.60;;;3.40;99.90;;;3.06;97.32;102341.41;5003801;28;20228;-69
2023/01/25 07:48:47;;;;;;;13.40;6.50;;;3.40;99.90;;;3.05;96.91;102334.50;4998521;28;20217;-70
2023/01/25 07:51:25;;;;;;;12.50;6.63;;;3.40;99.90;;;3.00;96.06;102336.28;4981945;28;20207;-70
2023/01/25 07:54:03;;;;;;;18.02;8.93;;;3.30;99.90;;;3.03;96.78;102336.25;4991952;28;20684;-69
2023/01/25 07:56:37;;;;;;;13.80;7.90;;;3.30;99.90;;;3.02;96.62;102338.88;4992030;28;20219;-68
2023/01/25 07:59:07;;;;;;;13.82;7.45;;;3.30;99.90;;;3.01;96.97;102339.72;4993707;28;20207;-68
2023/01/25 08:01:35;;;;;;;7.72;4.10;;;3.30;99.90;;;3.03;96.24;102345.72;5006823;28;20604;-69
2023/01/25 08:04:04;;;;;;;11.18;6.10;;;3.30;99.90;;;3.05;95.93;102341.38;5000747;28;20204;-69
2023/01/25 08:06:37;;;;;;;8.02;4.32;;;3.30;99.90;;;3.04;95.98;102350.03;4993133;28;20227;-70
2023/01/25 08:09:13;;;;;;;8.82;5.38;;;3.30;99.90;;;3.01;95.49;102344.88;4992364;28;20204;-69
2023/01/25 08:11:41;;;;;;;4.00;2.75;;;3.30;99.90;;;3.04;95.61;102343.16;4991195;28;20195;-66
2023/01/25 08:14:08;;;;;;;12.18;6.60;;;3.30;99.90;;;3.01;95.40;102342.31;5008723;28;20294;-67
2023/01/25 08:16:35;;;;;;;14.50;7.28;;;3.30;99.90;;;2.98;95.99;102340.63;4992147;28;20223;-69
2023/01/25 08:19:03;;;;;;;12.77;7.10;;;3.30;99.90;;;2.97;96.99;102343.22;5012063;28;20319;-69
2023/01/25 08:21:33;;;;;;;10.93;7.25;;;3.30;99.90;;;2.96;96.72;102339.78;5011842;28;20227;-69
2023/01/25 08:24:04;;;;;;;10.52;5.95;;;3.20;99.90;;;2.94;95.88;102338.09;5000403;28;20210;-68
2023/01/25 08:26:32;;;;;;;9.60;6.80;;;3.20;99.90;;;2.91;95.81;102333.88;5000662;28;20535;-68
2023/01/25 08:28:59;;;;;;;11.18;6.30;;;3.20;99.90;;;2.88;95.77;102341.63;4994792;28;20680;-68
2023/01/25 08:31:30;;;;;;;10.82;5.90;;;3.20;99.90;;;2.90;95.00;102339.88;4995378;28;20684;-68
2023/01/25 08:33:59;;;;;;;6.00;4.57;;;3.10;99.90;;;2.91;95.36;102338.16;4983312;28;20227;-68
2023/01/25 08:36:27;;;;;;;7.05;4.53;;;3.20;99.90;;;2.91;94.37;102336.44;5008465;23;20234;-65
2023/01/25 08:39:00;;;;;;;5.75;3.75;;;3.10;99.90;;;2.94;94.02;102331.22;5022179;28;20202;-66
2023/01/25 08:41:29;;;;;;;6.30;3.45;;;3.20;99.90;;;2.98;94.02;102330.31;5017420;28;20244;-65
2023/01/25 08:43:57;;;;;;;7.20;4.50;;;3.30;99.90;;;3.00;93.14;102333.72;5027335;28;20228;-65
2023/01/25 08:46:27;;;;;;;4.45;2.58;;;3.30;99.90;;;3.03;92.48;102333.69;5029374;28;20245;-65
2023/01/25 08:48:59;;;;;;;4.68;3.45;;;3.30;99.90;;;3.02;91.92;102326.81;5032368;28;20669;-65
2023/01/25 08:51:30;;;;;;;1.98;1.88;;;3.30;99.90;;;3.01;91.56;102327.69;5026607;28;20198;-65
2023/01/25 08:54:05;;;;;;;5.00;2.90;;;3.30;99.90;;;2.98;90.65;102309.69;5012747;28;20229;-63
2023/01/25 08:56:35;;;;;;;4.22;3.60;;;3.30;99.90;;;2.98;90.36;102320.00;5014279;28;20226;-63
2023/01/25 08:59:01;;;;;;;7.05;4.75;;;3.30;99.90;;;3.02;90.49;102316.50;5021744;28;20277;-65
2023/01/25 09:01:28;;;;;;;5.75;3.88;;;3.30;99.90;;;3.04;90.31;102316.50;5020996;28;20218;-65
2023/01/25 09:03:55;;;;;;;5.13;2.70;;;3.30;99.90;;;3.07;90.58;102319.88;5026703;28;20667;-65
2023/01/25 09:06:22;;;;;;;6.15;3.20;;;3.30;99.90;;;3.08;89.61;102319.00;5023969;28;20287;-65
2023/01/25 09:08:49;;;;;;;6.03;4.10;;;3.40;99.90;;;3.11;90.04;102308.63;5029823;28;20194;-66
2023/01/25 09:11:20;;;;;;;9.95;5.30;;;3.40;99.90;;;3.13;90.44;102312.03;5018461;28;20198;-65
2023/01/25 09:13:47;;;;;;;9.57;5.15;;;3.40;99.90;;;3.17;90.14;102304.28;5017348;28;20206;-65
2023/01/25 09:16:21;;;;;;;8.63;5.55;;;3.40;99.90;;;3.16;89.86;102306.00;5013600;28;21677;-65
2023/01/25 09:18:48;;;;;;;8.70;5.28;;;3.40;99.90;;;3.15;90.23;102310.28;5025484;28;20198;-65
2023/01/25 09:21:17;;;;;;;8.40;4.28;;;3.50;99.90;;;3.16;90.69;102316.31;5024742;28;20229;-65
2023/01/25 09:23:48;;;;;;;3.83;2.50;;;3.40;99.90;;;3.21;89.50;102313.66;5018578;28;20555;-65
2023/01/25 09:26:18;;;;;;;1.05;1.05;;;3.50;99.90;;;3.17;89.45;102306.84;5011175;28;20202;-64
2023/01/25 09:28:53;;;;;;;3.10;1.40;;;3.50;99.90;;;3.17;88.25;102308.53;5029949;28;20198;-65
2023/01/25 09:31:21;;;;;;;6.78;4.65;;;3.50;99.90;;;3.17;88.89;102310.28;5029164;28;20662;-64
2023/01/25 09:33:51;;;;;;;8.13;4.53;;;3.50;99.90;;;3.16;89.00;102311.16;5028503;28;20198;-65
2023/01/25 09:36:19;;;;;;;10.00;5.30;;;3.40;99.90;;;3.14;89.35;102311.19;5030828;28;20548;-66
2023/01/25 09:38:46;;;;;;;6.07;4.25;;;3.40;99.90;;;3.12;89.12;102310.34;5024384;28;20207;-66
2023/01/25 09:41:33;;;;;;;4.38;3.00;;;3.40;99.90;;;3.21;89.26;102308.50;5011736;28;20226;-66
2023/01/25 09:44:27;;;;;;;6.75;4.13;;;3.50;99.90;;;3.17;89.26;102313.69;5020507;28;20206;-66
2023/01/25 09:46:59;;;;;;;2.60;2.05;;;3.40;99.90;;;3.20;88.58;102312.81;5010620;28;20241;-66
2023/01/25 09:50:08;;;;;;;2.08;1.65;;;3.50;99.90;;;3.22;87.52;102316.22;5044857;28;20208;-66
2023/01/25 09:53:12;;;;;;;6.45;3.83;;;3.50;99.90;;;3.19;87.85;102316.28;5028201;28;20201;-66
2023/01/25 09:55:40;;;;;;;4.35;3.00;;;3.50;99.90;;;3.15;87.70;102312.88;5030929;28;20213;-65
2023/01/25 09:58:18;;;;;;;4.22;2.83;;;3.40;99.90;;;3.14;88.35;102308.59;5028251;28;20233;-66
2023/01/25 10:00:49;;;;;;;7.90;4.40;;;3.40;99.90;;;3.16;88.61;102306.00;5030356;28;20208;-66
2023/01/25 10:03:31;;;;;;;5.57;3.00;;;3.40;99.90;;;3.17;88.96;102300.78;5030160;28;20296;-66
2023/01/25 10:06:01;;;;;;;8.57;4.90;;;3.40;99.90;;;3.23;88.13;102301.59;5029826;28;20202;-65
2023/01/25 10:08:37;;;;;;;2.95;2.38;;;3.50;99.90;;;3.25;87.63;102298.13;5029395;28;20205;-66
2023/01/25 10:11:18;;;;;;;5.57;3.25;;;3.50;99.90;;;3.27;88.17;102292.94;5030284;28;20193;-66
2023/01/25 10:13:45;;;;;;;8.90;5.47;;;3.60;99.90;;;3.25;88.34;102287.78;5030419;28;20243;-66
2023/01/25 10:16:18;;;;;;;6.50;4.05;;;3.50;99.90;;;3.22;88.75;102284.38;5029356;28;20206;-65
2023/01/25 10:19:37;;;;;;;9.55;5.22;;;3.50;99.90;;;3.22;88.78;102284.38;5015791;28;20201;-66
2023/01/25 10:22:22;;;;;;;5.40;3.28;;;3.50;99.90;;;3.23;88.74;102286.97;5010264;28;20730;-66
2023/01/25 10:25:29;;;;;;;5.15;2.55;;;3.50;99.90;;;3.21;88.19;102282.72;5020462;28;20193;-66
2023/01/25 10:28:14;;;;;;;2.13;2.03;;;3.50;99.90;;;3.19;87.75;102279.31;5028664;28;20564;-66
2023/01/25 10:30:57;;;;;;;7.68;5.20;;;3.50;99.90;;;3.19;88.31;102277.59;5027920;28;20384;-65
2023/01/25 10:33:26;;;;;;;4.72;3.60;;;3.50;99.90;;;3.22;88.12;102274.06;5025442;28;20206;-65
2023/01/25 10:35:56;;;;;;;1.90;1.52;;;3.50;99.90;;;3.29;88.08;102275.69;5028267;28;20706;-66